sensor_id;sensor_type;location;lat;lon;timestamp;P1;durP1;ratioP1;P2;durP2;ratioP2
73599;SDS011;61877;48.246;9.220;2022-07-23T00:00:53;16.35;;;10.23;;
73599;SDS011;61877;48.246;9.220;2022-07-23T00:03:18;16.60;;;9.70;;
73599;SDS011;61877;48.246;9.220;2022-07-23T00:05:44;14.67;;;9.53;;
73599;SDS011;61877;48.246;9.220;2022-07-23T00:08:09;13.10;;;9.13;;
73599;SDS011;61877;48.246;9.220;2022-07-23T00:10:35;16.77;;;10.30;;
73599;SDS011;61877;48.246;9.220;2022-07-23T00:13:00;18.23;;;10.30;;
73599;SDS011;61877;48.246;9.220;2022-07-23T00:15:27;14.37;;;9.47;;
73599;SDS011;61877;48.246;9.220;2022-07-23T00:17:53;16.67;;;10.40;;
73599;SDS011;61877;48.246;9.220;2022-07-23T00:20:18;15.80;;;10.18;;
73599;SDS011;61877;48.246;9.220;2022-07-23T00:22:47;15.57;;;10.30;;
73599;SDS011;61877;48.246;9.220;2022-07-23T00:25:12;15.52;;;10.00;;
73599;SDS011;61877;48.246;9.220;2022-07-23T00:27:38;15.27;;;10.80;;
73599;SDS011;61877;48.246;9.220;2022-07-23T00:30:03;15.37;;;10.27;;
73599;SDS011;61877;48.246;9.220;2022-07-23T00:32:31;15.52;;;9.98;;
73599;SDS011;61877;48.246;9.220;2022-07-23T00:34:56;15.88;;;10.38;;
73599;SDS011;61877;48.246;9.220;2022-07-23T00:37:21;15.47;;;10.13;;
73599;SDS011;61877;48.246;9.220;2022-07-23T00:39:47;16.57;;;10.30;;
73599;SDS011;61877;48.246;9.220;2022-07-23T00:42:12;16.63;;;10.52;;
73599;SDS011;61877;48.246;9.220;2022-07-23T00:44:37;15.47;;;9.93;;
73599;SDS011;61877;48.246;9.220;2022-07-23T00:47:03;16.07;;;10.60;;
73599;SDS011;61877;48.246;9.220;2022-07-23T00:49:30;15.97;;;10.40;;
73599;SDS011;61877;48.246;9.220;2022-07-23T00:51:56;14.55;;;10.05;;
73599;SDS011;61877;48.246;9.220;2022-07-23T00:54:23;17.15;;;10.00;;
73599;SDS011;61877;48.246;9.220;2022-07-23T00:56:50;16.10;;;10.10;;
73599;SDS011;61877;48.246;9.220;2022-07-23T00:59:15;16.10;;;9.70;;
73599;SDS011;61877;48.246;9.220;2022-07-23T01:01:41;15.20;;;9.80;;
73599;SDS011;61877;48.246;9.220;2022-07-23T01:04:07;14.63;;;9.55;;
73599;SDS011;61877;48.246;9.220;2022-07-23T01:06:34;14.73;;;9.90;;
73599;SDS011;61877;48.246;9.220;2022-07-23T01:09:01;17.20;;;10.10;;
73599;SDS011;61877;48.246;9.220;2022-07-23T01:11:26;15.43;;;10.40;;
73599;SDS011;61877;48.246;9.220;2022-07-23T01:13:52;15.90;;;10.13;;
73599;SDS011;61877;48.246;9.220;2022-07-23T01:16:18;15.17;;;9.77;;
73599;SDS011;61877;48.246;9.220;2022-07-23T01:18:43;14.23;;;9.67;;
73599;SDS011;61877;48.246;9.220;2022-07-23T01:21:09;14.10;;;9.60;;
73599;SDS011;61877;48.246;9.220;2022-07-23T01:23:38;15.63;;;9.90;;
73599;SDS011;61877;48.246;9.220;2022-07-23T01:26:04;16.17;;;10.10;;
73599;SDS011;61877;48.246;9.220;2022-07-23T01:28:29;16.45;;;10.20;;
73599;SDS011;61877;48.246;9.220;2022-07-23T01:30:55;14.90;;;9.93;;
73599;SDS011;61877;48.246;9.220;2022-07-23T01:33:20;16.13;;;10.60;;
73599;SDS011;61877;48.246;9.220;2022-07-23T01:35:46;16.08;;;10.55;;
73599;SDS011;61877;48.246;9.220;2022-07-23T01:38:11;15.43;;;10.20;;
73599;SDS011;61877;48.246;9.220;2022-07-23T01:40:38;15.47;;;10.13;;
73599;SDS011;61877;48.246;9.220;2022-07-23T01:43:03;15.32;;;9.80;;
73599;SDS011;61877;48.246;9.220;2022-07-23T01:45:30;15.67;;;9.77;;
73599;SDS011;61877;48.246;9.220;2022-07-23T01:47:55;15.65;;;10.10;;
73599;SDS011;61877;48.246;9.220;2022-07-23T01:50:21;14.30;;;9.63;;
73599;SDS011;61877;48.246;9.220;2022-07-23T01:52:46;15.57;;;9.40;;
73599;SDS011;61877;48.246;9.220;2022-07-23T01:55:11;15.25;;;9.55;;
73599;SDS011;61877;48.246;9.220;2022-07-23T01:57:38;13.33;;;8.90;;
73599;SDS011;61877;48.246;9.220;2022-07-23T02:00:04;15.70;;;10.25;;
73599;SDS011;61877;48.246;9.220;2022-07-23T02:02:30;14.80;;;9.67;;
73599;SDS011;61877;48.246;9.220;2022-07-23T02:04:55;15.23;;;9.77;;
73599;SDS011;61877;48.246;9.220;2022-07-23T02:07:20;14.87;;;10.30;;
73599;SDS011;61877;48.246;9.220;2022-07-23T02:09:46;14.20;;;9.30;;
73599;SDS011;61877;48.246;9.220;2022-07-23T02:12:11;14.93;;;9.60;;
73599;SDS011;61877;48.246;9.220;2022-07-23T02:14:38;16.00;;;10.48;;
73599;SDS011;61877;48.246;9.220;2022-07-23T02:17:04;15.67;;;10.00;;
73599;SDS011;61877;48.246;9.220;2022-07-23T02:19:29;16.08;;;9.93;;
73599;SDS011;61877;48.246;9.220;2022-07-23T02:21:54;15.57;;;9.73;;
73599;SDS011;61877;48.246;9.220;2022-07-23T02:24:20;14.60;;;9.50;;
73599;SDS011;61877;48.246;9.220;2022-07-23T02:26:45;19.75;;;10.80;;
73599;SDS011;61877;48.246;9.220;2022-07-23T02:29:11;18.73;;;10.43;;
73599;SDS011;61877;48.246;9.220;2022-07-23T02:31:38;16.90;;;10.40;;
73599;SDS011;61877;48.246;9.220;2022-07-23T02:34:04;17.45;;;11.00;;
73599;SDS011;61877;48.246;9.220;2022-07-23T02:36:29;15.85;;;10.07;;
73599;SDS011;61877;48.246;9.220;2022-07-23T02:38:55;18.87;;;11.03;;
73599;SDS011;61877;48.246;9.220;2022-07-23T02:41:20;15.73;;;10.50;;
73599;SDS011;61877;48.246;9.220;2022-07-23T02:43:46;19.38;;;11.57;;
73599;SDS011;61877;48.246;9.220;2022-07-23T02:46:11;17.67;;;10.60;;
73599;SDS011;61877;48.246;9.220;2022-07-23T02:48:38;15.67;;;10.77;;
73599;SDS011;61877;48.246;9.220;2022-07-23T02:51:03;15.70;;;10.40;;
73599;SDS011;61877;48.246;9.220;2022-07-23T02:53:29;14.43;;;9.80;;
73599;SDS011;61877;48.246;9.220;2022-07-23T02:55:54;17.47;;;10.30;;
73599;SDS011;61877;48.246;9.220;2022-07-23T02:58:19;16.23;;;10.00;;
73599;SDS011;61877;48.246;9.220;2022-07-23T03:00:45;14.80;;;9.97;;
73599;SDS011;61877;48.246;9.220;2022-07-23T03:03:10;15.07;;;10.10;;
73599;SDS011;61877;48.246;9.220;2022-07-23T03:05:37;14.63;;;9.20;;
73599;SDS011;61877;48.246;9.220;2022-07-23T03:08:02;15.52;;;9.95;;
73599;SDS011;61877;48.246;9.220;2022-07-23T03:10:28;15.63;;;10.13;;
73599;SDS011;61877;48.246;9.220;2022-07-23T03:12:54;15.80;;;9.90;;
73599;SDS011;61877;48.246;9.220;2022-07-23T03:15:19;15.83;;;9.60;;
73599;SDS011;61877;48.246;9.220;2022-07-23T03:17:45;15.17;;;10.07;;
73599;SDS011;61877;48.246;9.220;2022-07-23T03:20:10;17.40;;;10.27;;
73599;SDS011;61877;48.246;9.220;2022-07-23T03:22:37;15.03;;;9.63;;
73599;SDS011;61877;48.246;9.220;2022-07-23T03:25:02;16.30;;;10.23;;
73599;SDS011;61877;48.246;9.220;2022-07-23T03:27:29;16.83;;;10.07;;
73599;SDS011;61877;48.246;9.220;2022-07-23T03:29:55;16.23;;;10.23;;
73599;SDS011;61877;48.246;9.220;2022-07-23T03:32:22;15.75;;;10.40;;
73599;SDS011;61877;48.246;9.220;2022-07-23T03:34:48;15.75;;;9.98;;
73599;SDS011;61877;48.246;9.220;2022-07-23T03:37:14;17.20;;;10.07;;
73599;SDS011;61877;48.246;9.220;2022-07-23T03:39:41;16.83;;;9.77;;
73599;SDS011;61877;48.246;9.220;2022-07-23T03:42:06;16.45;;;10.43;;
73599;SDS011;61877;48.246;9.220;2022-07-23T03:44:32;15.67;;;10.23;;
73599;SDS011;61877;48.246;9.220;2022-07-23T03:46:58;15.60;;;10.30;;
73599;SDS011;61877;48.246;9.220;2022-07-23T03:49:24;15.17;;;10.37;;
73599;SDS011;61877;48.246;9.220;2022-07-23T03:51:52;15.77;;;10.10;;
73599;SDS011;61877;48.246;9.220;2022-07-23T03:54:18;14.87;;;9.63;;
73599;SDS011;61877;48.246;9.220;2022-07-23T03:56:44;15.73;;;10.02;;
73599;SDS011;61877;48.246;9.220;2022-07-23T03:59:10;16.00;;;9.73;;
73599;SDS011;61877;48.246;9.220;2022-07-23T04:01:35;17.20;;;10.63;;
73599;SDS011;61877;48.246;9.220;2022-07-23T04:04:01;14.80;;;10.20;;
73599;SDS011;61877;48.246;9.220;2022-07-23T04:06:26;16.37;;;10.50;;
73599;SDS011;61877;48.246;9.220;2022-07-23T04:08:52;15.77;;;10.10;;
73599;SDS011;61877;48.246;9.220;2022-07-23T04:11:17;15.87;;;10.03;;
73599;SDS011;61877;48.246;9.220;2022-07-23T04:13:44;15.20;;;9.57;;
73599;SDS011;61877;48.246;9.220;2022-07-23T04:16:09;15.25;;;9.07;;
73599;SDS011;61877;48.246;9.220;2022-07-23T04:18:35;14.80;;;8.97;;
73599;SDS011;61877;48.246;9.220;2022-07-23T04:21:00;14.77;;;9.43;;
73599;SDS011;61877;48.246;9.220;2022-07-23T04:23:25;14.27;;;9.43;;
73599;SDS011;61877;48.246;9.220;2022-07-23T04:25:51;16.97;;;10.40;;
73599;SDS011;61877;48.246;9.220;2022-07-23T04:28:16;16.90;;;10.07;;
73599;SDS011;61877;48.246;9.220;2022-07-23T04:30:43;17.60;;;10.83;;
73599;SDS011;61877;48.246;9.220;2022-07-23T04:33:09;16.20;;;10.77;;
73599;SDS011;61877;48.246;9.220;2022-07-23T04:35:34;15.10;;;9.77;;
73599;SDS011;61877;48.246;9.220;2022-07-23T04:38:02;16.73;;;9.87;;
73599;SDS011;61877;48.246;9.220;2022-07-23T04:40:28;15.55;;;10.32;;
73599;SDS011;61877;48.246;9.220;2022-07-23T04:42:54;15.05;;;9.75;;
73599;SDS011;61877;48.246;9.220;2022-07-23T04:45:20;14.90;;;10.07;;
73599;SDS011;61877;48.246;9.220;2022-07-23T04:47:47;15.77;;;9.40;;
73599;SDS011;61877;48.246;9.220;2022-07-23T04:50:12;15.55;;;9.70;;
73599;SDS011;61877;48.246;9.220;2022-07-23T04:52:37;15.67;;;9.87;;
73599;SDS011;61877;48.246;9.220;2022-07-23T04:55:03;14.83;;;9.53;;
73599;SDS011;61877;48.246;9.220;2022-07-23T04:57:29;14.23;;;9.70;;
73599;SDS011;61877;48.246;9.220;2022-07-23T04:59:55;33.63;;;11.83;;
73599;SDS011;61877;48.246;9.220;2022-07-23T05:02:20;17.23;;;10.47;;
73599;SDS011;61877;48.246;9.220;2022-07-23T05:04:47;16.33;;;10.57;;
73599;SDS011;61877;48.246;9.220;2022-07-23T05:07:12;18.77;;;11.03;;
73599;SDS011;61877;48.246;9.220;2022-07-23T05:09:37;15.02;;;9.73;;
73599;SDS011;61877;48.246;9.220;2022-07-23T05:12:03;16.67;;;10.60;;
73599;SDS011;61877;48.246;9.220;2022-07-23T05:14:29;16.50;;;10.70;;
73599;SDS011;61877;48.246;9.220;2022-07-23T05:16:54;15.73;;;9.80;;
73599;SDS011;61877;48.246;9.220;2022-07-23T05:19:20;15.63;;;10.00;;
73599;SDS011;61877;48.246;9.220;2022-07-23T05:21:47;16.25;;;10.10;;
73599;SDS011;61877;48.246;9.220;2022-07-23T05:24:12;14.63;;;9.03;;
73599;SDS011;61877;48.246;9.220;2022-07-23T05:26:37;14.07;;;9.43;;
73599;SDS011;61877;48.246;9.220;2022-07-23T05:29:03;14.70;;;9.20;;
73599;SDS011;61877;48.246;9.220;2022-07-23T05:31:28;14.77;;;9.63;;
73599;SDS011;61877;48.246;9.220;2022-07-23T05:33:54;17.00;;;10.00;;
73599;SDS011;61877;48.246;9.220;2022-07-23T05:36:19;15.02;;;10.30;;
73599;SDS011;61877;48.246;9.220;2022-07-23T05:38:46;15.87;;;10.53;;
73599;SDS011;61877;48.246;9.220;2022-07-23T05:41:11;16.13;;;9.95;;
73599;SDS011;61877;48.246;9.220;2022-07-23T05:43:37;14.60;;;9.60;;
73599;SDS011;61877;48.246;9.220;2022-07-23T05:46:02;15.87;;;9.87;;
73599;SDS011;61877;48.246;9.220;2022-07-23T05:48:28;17.23;;;9.40;;
73599;SDS011;61877;48.246;9.220;2022-07-23T05:50:53;15.60;;;10.23;;
73599;SDS011;61877;48.246;9.220;2022-07-23T05:53:18;14.87;;;9.87;;
73599;SDS011;61877;48.246;9.220;2022-07-23T05:55:45;15.20;;;9.50;;
73599;SDS011;61877;48.246;9.220;2022-07-23T05:58:11;13.52;;;9.13;;
73599;SDS011;61877;48.246;9.220;2022-07-23T06:00:36;14.07;;;9.33;;
73599;SDS011;61877;48.246;9.220;2022-07-23T06:03:01;15.93;;;9.13;;
73599;SDS011;61877;48.246;9.220;2022-07-23T06:05:27;15.50;;;9.65;;
73599;SDS011;61877;48.246;9.220;2022-07-23T06:07:52;17.03;;;9.57;;
73599;SDS011;61877;48.246;9.220;2022-07-23T06:10:17;14.33;;;9.77;;
73599;SDS011;61877;48.246;9.220;2022-07-23T06:12:44;14.73;;;10.07;;
73599;SDS011;61877;48.246;9.220;2022-07-23T06:15:10;16.80;;;10.32;;
73599;SDS011;61877;48.246;9.220;2022-07-23T06:17:35;16.65;;;10.40;;
73599;SDS011;61877;48.246;9.220;2022-07-23T06:20:01;15.30;;;10.20;;
73599;SDS011;61877;48.246;9.220;2022-07-23T06:22:27;14.57;;;9.67;;
73599;SDS011;61877;48.246;9.220;2022-07-23T06:24:52;14.65;;;9.95;;
73599;SDS011;61877;48.246;9.220;2022-07-23T06:27:17;14.10;;;9.43;;
73599;SDS011;61877;48.246;9.220;2022-07-23T06:29:45;15.13;;;10.25;;
73599;SDS011;61877;48.246;9.220;2022-07-23T06:32:10;15.37;;;9.70;;
73599;SDS011;61877;48.246;9.220;2022-07-23T06:34:35;15.68;;;9.48;;
73599;SDS011;61877;48.246;9.220;2022-07-23T06:37:01;15.10;;;9.33;;
73599;SDS011;61877;48.246;9.220;2022-07-23T06:39:26;14.17;;;8.90;;
73599;SDS011;61877;48.246;9.220;2022-07-23T06:41:52;14.98;;;9.13;;
73599;SDS011;61877;48.246;9.220;2022-07-23T06:44:17;13.80;;;8.53;;
73599;SDS011;61877;48.246;9.220;2022-07-23T06:46:44;13.77;;;8.93;;
73599;SDS011;61877;48.246;9.220;2022-07-23T06:49:10;15.60;;;9.13;;
73599;SDS011;61877;48.246;9.220;2022-07-23T06:51:35;12.77;;;8.60;;
73599;SDS011;61877;48.246;9.220;2022-07-23T06:54:01;12.60;;;8.60;;
73599;SDS011;61877;48.246;9.220;2022-07-23T06:56:27;13.32;;;8.88;;
73599;SDS011;61877;48.246;9.220;2022-07-23T06:58:52;14.17;;;9.37;;
73599;SDS011;61877;48.246;9.220;2022-07-23T07:01:18;13.77;;;8.70;;
73599;SDS011;61877;48.246;9.220;2022-07-23T07:03:44;14.83;;;9.47;;
73599;SDS011;61877;48.246;9.220;2022-07-23T07:06:10;15.10;;;9.27;;
73599;SDS011;61877;48.246;9.220;2022-07-23T07:08:36;14.23;;;8.85;;
73599;SDS011;61877;48.246;9.220;2022-07-23T07:11:01;15.47;;;8.63;;
73599;SDS011;61877;48.246;9.220;2022-07-23T07:13:27;13.70;;;8.60;;
73599;SDS011;61877;48.246;9.220;2022-07-23T07:15:53;15.20;;;9.00;;
73599;SDS011;61877;48.246;9.220;2022-07-23T07:18:18;12.10;;;8.20;;
73599;SDS011;61877;48.246;9.220;2022-07-23T07:20:45;12.40;;;8.27;;
73599;SDS011;61877;48.246;9.220;2022-07-23T07:23:10;13.47;;;8.70;;
73599;SDS011;61877;48.246;9.220;2022-07-23T07:25:37;12.93;;;8.50;;
73599;SDS011;61877;48.246;9.220;2022-07-23T07:28:02;12.27;;;8.00;;
73599;SDS011;61877;48.246;9.220;2022-07-23T07:30:28;12.20;;;7.82;;
73599;SDS011;61877;48.246;9.220;2022-07-23T07:32:54;12.27;;;7.70;;
73599;SDS011;61877;48.246;9.220;2022-07-23T07:35:19;13.37;;;8.10;;
73599;SDS011;61877;48.246;9.220;2022-07-23T07:37:46;12.17;;;7.90;;
73599;SDS011;61877;48.246;9.220;2022-07-23T07:40:12;11.15;;;7.20;;
73599;SDS011;61877;48.246;9.220;2022-07-23T07:42:44;10.90;;;7.30;;
73599;SDS011;61877;48.246;9.220;2022-07-23T07:45:10;10.98;;;7.53;;
73599;SDS011;61877;48.246;9.220;2022-07-23T07:47:35;12.20;;;7.30;;
73599;SDS011;61877;48.246;9.220;2022-07-23T07:50:00;10.55;;;7.35;;
73599;SDS011;61877;48.246;9.220;2022-07-23T07:52:26;12.73;;;7.67;;
73599;SDS011;61877;48.246;9.220;2022-07-23T07:54:52;10.73;;;7.03;;
73599;SDS011;61877;48.246;9.220;2022-07-23T07:57:18;11.27;;;7.43;;
73599;SDS011;61877;48.246;9.220;2022-07-23T07:59:43;11.90;;;7.60;;
73599;SDS011;61877;48.246;9.220;2022-07-23T08:02:09;11.43;;;7.70;;
73599;SDS011;61877;48.246;9.220;2022-07-23T08:04:34;12.13;;;7.20;;
73599;SDS011;61877;48.246;9.220;2022-07-23T08:06:59;13.10;;;7.73;;
73599;SDS011;61877;48.246;9.220;2022-07-23T08:09:25;11.20;;;7.70;;
73599;SDS011;61877;48.246;9.220;2022-07-23T08:11:51;11.13;;;7.10;;
73599;SDS011;61877;48.246;9.220;2022-07-23T08:14:17;10.73;;;6.97;;
73599;SDS011;61877;48.246;9.220;2022-07-23T08:16:42;10.67;;;7.47;;
73599;SDS011;61877;48.246;9.220;2022-07-23T08:19:08;11.33;;;7.13;;
73599;SDS011;61877;48.246;9.220;2022-07-23T08:21:33;12.05;;;8.30;;
73599;SDS011;61877;48.246;9.220;2022-07-23T08:23:59;13.30;;;8.80;;
73599;SDS011;61877;48.246;9.220;2022-07-23T08:26:24;13.33;;;7.90;;
73599;SDS011;61877;48.246;9.220;2022-07-23T08:28:51;11.47;;;7.80;;
73599;SDS011;61877;48.246;9.220;2022-07-23T08:31:16;11.65;;;7.40;;
73599;SDS011;61877;48.246;9.220;2022-07-23T08:33:42;13.27;;;7.67;;
73599;SDS011;61877;48.246;9.220;2022-07-23T08:36:07;12.93;;;7.93;;
73599;SDS011;61877;48.246;9.220;2022-07-23T08:38:33;12.23;;;7.77;;
73599;SDS011;61877;48.246;9.220;2022-07-23T08:40:59;12.18;;;7.63;;
73599;SDS011;61877;48.246;9.220;2022-07-23T08:43:25;12.20;;;7.90;;
73599;SDS011;61877;48.246;9.220;2022-07-23T08:45:54;12.75;;;8.00;;
73599;SDS011;61877;48.246;9.220;2022-07-23T08:48:21;13.20;;;9.23;;
73599;SDS011;61877;48.246;9.220;2022-07-23T08:50:49;13.05;;;8.52;;
73599;SDS011;61877;48.246;9.220;2022-07-23T08:53:16;12.13;;;8.57;;
73599;SDS011;61877;48.246;9.220;2022-07-23T08:55:43;12.47;;;8.53;;
73599;SDS011;61877;48.246;9.220;2022-07-23T08:58:09;12.93;;;8.90;;
73599;SDS011;61877;48.246;9.220;2022-07-23T09:00:34;15.77;;;8.80;;
73599;SDS011;61877;48.246;9.220;2022-07-23T09:03:01;12.55;;;8.68;;
73599;SDS011;61877;48.246;9.220;2022-07-23T09:05:27;13.50;;;8.67;;
73599;SDS011;61877;48.246;9.220;2022-07-23T09:08:06;12.63;;;8.82;;
73599;SDS011;61877;48.246;9.220;2022-07-23T09:10:42;12.65;;;8.52;;
73599;SDS011;61877;48.246;9.220;2022-07-23T09:13:26;12.50;;;8.93;;
73599;SDS011;61877;48.246;9.220;2022-07-23T09:15:57;14.27;;;9.02;;
73599;SDS011;61877;48.246;9.220;2022-07-23T09:18:34;12.65;;;9.27;;
73599;SDS011;61877;48.246;9.220;2022-07-23T09:21:09;12.88;;;8.90;;
73599;SDS011;61877;48.246;9.220;2022-07-23T09:23:37;14.02;;;9.48;;
73599;SDS011;61877;48.246;9.220;2022-07-23T09:26:03;14.07;;;9.07;;
73599;SDS011;61877;48.246;9.220;2022-07-23T09:28:47;13.38;;;8.98;;
73599;SDS011;61877;48.246;9.220;2022-07-23T09:31:25;13.35;;;9.70;;
73599;SDS011;61877;48.246;9.220;2022-07-23T09:34:05;12.52;;;9.30;;
73599;SDS011;61877;48.246;9.220;2022-07-23T09:36:34;13.63;;;9.82;;
73599;SDS011;61877;48.246;9.220;2022-07-23T09:39:00;12.67;;;8.90;;
73599;SDS011;61877;48.246;9.220;2022-07-23T09:41:25;13.88;;;9.50;;
73599;SDS011;61877;48.246;9.220;2022-07-23T09:43:59;13.97;;;9.00;;
73599;SDS011;61877;48.246;9.220;2022-07-23T09:46:32;14.70;;;9.45;;
73599;SDS011;61877;48.246;9.220;2022-07-23T09:48:57;14.27;;;9.10;;
73599;SDS011;61877;48.246;9.220;2022-07-23T09:51:24;12.93;;;9.55;;
73599;SDS011;61877;48.246;9.220;2022-07-23T09:53:49;13.30;;;9.00;;
73599;SDS011;61877;48.246;9.220;2022-07-23T09:56:15;14.85;;;9.73;;
73599;SDS011;61877;48.246;9.220;2022-07-23T09:58:41;14.30;;;9.47;;
73599;SDS011;61877;48.246;9.220;2022-07-23T10:01:06;13.00;;;8.95;;
73599;SDS011;61877;48.246;9.220;2022-07-23T10:03:32;13.57;;;9.57;;
73599;SDS011;61877;48.246;9.220;2022-07-23T10:05:58;12.25;;;9.13;;
73599;SDS011;61877;48.246;9.220;2022-07-23T10:08:24;12.77;;;8.80;;
73599;SDS011;61877;48.246;9.220;2022-07-23T10:10:50;13.85;;;9.88;;
73599;SDS011;61877;48.246;9.220;2022-07-23T10:13:17;15.63;;;9.15;;
73599;SDS011;61877;48.246;9.220;2022-07-23T10:15:43;14.53;;;9.10;;
73599;SDS011;61877;48.246;9.220;2022-07-23T10:18:09;13.32;;;9.65;;
73599;SDS011;61877;48.246;9.220;2022-07-23T10:20:35;13.13;;;9.27;;
73599;SDS011;61877;48.246;9.220;2022-07-23T10:23:03;13.77;;;9.13;;
73599;SDS011;61877;48.246;9.220;2022-07-23T10:25:39;12.80;;;9.57;;
73599;SDS011;61877;48.246;9.220;2022-07-23T10:28:13;12.23;;;9.10;;
73599;SDS011;61877;48.246;9.220;2022-07-23T10:30:51;13.15;;;9.32;;
73599;SDS011;61877;48.246;9.220;2022-07-23T10:33:30;12.68;;;8.90;;
73599;SDS011;61877;48.246;9.220;2022-07-23T10:36:04;13.10;;;9.40;;
73599;SDS011;61877;48.246;9.220;2022-07-23T10:38:35;12.73;;;9.40;;
73599;SDS011;61877;48.246;9.220;2022-07-23T10:41:07;12.32;;;9.30;;
73599;SDS011;61877;48.246;9.220;2022-07-23T10:43:33;12.63;;;9.25;;
73599;SDS011;61877;48.246;9.220;2022-07-23T10:49:02;13.75;;;9.95;;
73599;SDS011;61877;48.246;9.220;2022-07-23T10:54:47;12.43;;;8.30;;
73599;SDS011;61877;48.246;9.220;2022-07-23T10:57:15;11.43;;;8.03;;
73599;SDS011;61877;48.246;9.220;2022-07-23T11:02:38;12.15;;;8.35;;
73599;SDS011;61877;48.246;9.220;2022-07-23T11:05:05;11.75;;;8.32;;
73599;SDS011;61877;48.246;9.220;2022-07-23T11:07:32;12.00;;;8.70;;
73599;SDS011;61877;48.246;9.220;2022-07-23T11:10:00;12.37;;;8.50;;
73599;SDS011;61877;48.246;9.220;2022-07-23T11:12:36;12.68;;;8.98;;
73599;SDS011;61877;48.246;9.220;2022-07-23T11:15:03;11.90;;;8.30;;
73599;SDS011;61877;48.246;9.220;2022-07-23T11:17:32;12.47;;;8.60;;
73599;SDS011;61877;48.246;9.220;2022-07-23T11:20:18;12.60;;;8.82;;
73599;SDS011;61877;48.246;9.220;2022-07-23T11:22:49;14.13;;;8.85;;
73599;SDS011;61877;48.246;9.220;2022-07-23T11:25:30;11.43;;;8.38;;
73599;SDS011;61877;48.246;9.220;2022-07-23T11:28:08;11.30;;;7.97;;
73599;SDS011;61877;48.246;9.220;2022-07-23T11:30:37;12.47;;;8.67;;
73599;SDS011;61877;48.246;9.220;2022-07-23T11:33:15;12.70;;;9.07;;
73599;SDS011;61877;48.246;9.220;2022-07-23T11:35:43;12.35;;;8.90;;
73599;SDS011;61877;48.246;9.220;2022-07-23T11:38:14;12.63;;;8.70;;
73599;SDS011;61877;48.246;9.220;2022-07-23T11:40:43;11.45;;;8.30;;
73599;SDS011;61877;48.246;9.220;2022-07-23T11:43:14;12.00;;;8.50;;
73599;SDS011;61877;48.246;9.220;2022-07-23T11:45:42;11.55;;;8.15;;
73599;SDS011;61877;48.246;9.220;2022-07-23T11:48:09;11.98;;;8.32;;
73599;SDS011;61877;48.246;9.220;2022-07-23T11:50:40;12.38;;;8.85;;
73599;SDS011;61877;48.246;9.220;2022-07-23T11:53:06;12.10;;;8.90;;
73599;SDS011;61877;48.246;9.220;2022-07-23T11:55:31;11.90;;;8.67;;
73599;SDS011;61877;48.246;9.220;2022-07-23T11:57:57;11.88;;;8.82;;
73599;SDS011;61877;48.246;9.220;2022-07-23T12:00:26;13.80;;;8.97;;
73599;SDS011;61877;48.246;9.220;2022-07-23T12:02:54;12.15;;;8.80;;
73599;SDS011;61877;48.246;9.220;2022-07-23T12:05:22;12.25;;;8.90;;
73599;SDS011;61877;48.246;9.220;2022-07-23T12:07:49;12.70;;;8.80;;
73599;SDS011;61877;48.246;9.220;2022-07-23T12:10:16;13.00;;;8.88;;
73599;SDS011;61877;48.246;9.220;2022-07-23T12:12:44;13.48;;;9.05;;
73599;SDS011;61877;48.246;9.220;2022-07-23T12:15:13;12.10;;;8.65;;
73599;SDS011;61877;48.246;9.220;2022-07-23T12:17:41;13.13;;;8.55;;
73599;SDS011;61877;48.246;9.220;2022-07-23T12:20:09;13.50;;;8.43;;
73599;SDS011;61877;48.246;9.220;2022-07-23T12:22:38;13.82;;;8.82;;
73599;SDS011;61877;48.246;9.220;2022-07-23T12:25:08;12.55;;;8.73;;
73599;SDS011;61877;48.246;9.220;2022-07-23T12:27:35;11.48;;;8.35;;
73599;SDS011;61877;48.246;9.220;2022-07-23T12:30:17;12.63;;;8.60;;
73599;SDS011;61877;48.246;9.220;2022-07-23T12:32:49;12.05;;;8.38;;
73599;SDS011;61877;48.246;9.220;2022-07-23T12:35:16;14.95;;;8.70;;
73599;SDS011;61877;48.246;9.220;2022-07-23T12:37:43;11.23;;;8.40;;
73599;SDS011;61877;48.246;9.220;2022-07-23T12:40:20;12.73;;;8.55;;
73599;SDS011;61877;48.246;9.220;2022-07-23T12:42:47;12.87;;;9.20;;
73599;SDS011;61877;48.246;9.220;2022-07-23T12:45:12;13.30;;;9.00;;
73599;SDS011;61877;48.246;9.220;2022-07-23T12:47:56;12.77;;;9.30;;
73599;SDS011;61877;48.246;9.220;2022-07-23T12:50:33;12.48;;;9.02;;
73599;SDS011;61877;48.246;9.220;2022-07-23T12:53:07;12.68;;;9.13;;
73599;SDS011;61877;48.246;9.220;2022-07-23T12:55:56;11.77;;;8.48;;
73599;SDS011;61877;48.246;9.220;2022-07-23T12:58:22;11.57;;;8.73;;
73599;SDS011;61877;48.246;9.220;2022-07-23T13:00:58;12.47;;;8.70;;
73599;SDS011;61877;48.246;9.220;2022-07-23T13:03:28;11.68;;;9.25;;
73599;SDS011;61877;48.246;9.220;2022-07-23T13:05:55;11.63;;;8.90;;
73599;SDS011;61877;48.246;9.220;2022-07-23T13:08:21;11.35;;;8.40;;
73599;SDS011;61877;48.246;9.220;2022-07-23T13:10:48;15.90;;;8.75;;
73599;SDS011;61877;48.246;9.220;2022-07-23T13:13:17;11.75;;;8.70;;
73599;SDS011;61877;48.246;9.220;2022-07-23T13:15:44;12.68;;;9.20;;
73599;SDS011;61877;48.246;9.220;2022-07-23T13:18:10;11.93;;;8.80;;
73599;SDS011;61877;48.246;9.220;2022-07-23T13:20:36;12.60;;;8.67;;
73599;SDS011;61877;48.246;9.220;2022-07-23T13:23:02;14.25;;;9.02;;
73599;SDS011;61877;48.246;9.220;2022-07-23T13:25:27;11.77;;;8.43;;
73599;SDS011;61877;48.246;9.220;2022-07-23T13:27:53;13.10;;;9.07;;
73599;SDS011;61877;48.246;9.220;2022-07-23T13:30:18;12.52;;;8.65;;
73599;SDS011;61877;48.246;9.220;2022-07-23T13:32:43;11.77;;;8.83;;
73599;SDS011;61877;48.246;9.220;2022-07-23T13:35:09;11.67;;;8.70;;
73599;SDS011;61877;48.246;9.220;2022-07-23T13:37:36;12.10;;;8.90;;
73599;SDS011;61877;48.246;9.220;2022-07-23T13:40:01;11.70;;;8.70;;
73599;SDS011;61877;48.246;9.220;2022-07-23T13:42:28;12.05;;;9.10;;
73599;SDS011;61877;48.246;9.220;2022-07-23T13:44:53;11.37;;;8.87;;
73599;SDS011;61877;48.246;9.220;2022-07-23T13:47:19;12.27;;;9.17;;
73599;SDS011;61877;48.246;9.220;2022-07-23T13:49:44;11.82;;;8.45;;
73599;SDS011;61877;48.246;9.220;2022-07-23T13:52:09;12.03;;;9.10;;
73599;SDS011;61877;48.246;9.220;2022-07-23T13:54:36;12.53;;;9.20;;
73599;SDS011;61877;48.246;9.220;2022-07-23T13:57:02;13.35;;;9.63;;
73599;SDS011;61877;48.246;9.220;2022-07-23T13:59:28;12.27;;;9.43;;
73599;SDS011;61877;48.246;9.220;2022-07-23T14:01:53;11.80;;;8.90;;
73599;SDS011;61877;48.246;9.220;2022-07-23T14:04:20;11.75;;;9.27;;
73599;SDS011;61877;48.246;9.220;2022-07-23T14:06:45;11.85;;;9.25;;
73599;SDS011;61877;48.246;9.220;2022-07-23T14:09:11;12.40;;;9.00;;
73599;SDS011;61877;48.246;9.220;2022-07-23T14:11:38;11.47;;;8.70;;
73599;SDS011;61877;48.246;9.220;2022-07-23T14:14:03;11.27;;;8.38;;
73599;SDS011;61877;48.246;9.220;2022-07-23T14:16:28;12.37;;;8.80;;
73599;SDS011;61877;48.246;9.220;2022-07-23T14:18:54;12.77;;;8.90;;
73599;SDS011;61877;48.246;9.220;2022-07-23T14:21:19;10.90;;;8.80;;
73599;SDS011;61877;48.246;9.220;2022-07-23T14:23:45;10.98;;;8.57;;
73599;SDS011;61877;48.246;9.220;2022-07-23T14:26:10;12.30;;;8.27;;
73599;SDS011;61877;48.246;9.220;2022-07-23T14:28:37;10.97;;;8.50;;
73599;SDS011;61877;48.246;9.220;2022-07-23T14:31:02;11.90;;;8.77;;
73599;SDS011;61877;48.246;9.220;2022-07-23T14:33:28;10.93;;;8.60;;
73599;SDS011;61877;48.246;9.220;2022-07-23T14:35:53;11.33;;;8.90;;
73599;SDS011;61877;48.246;9.220;2022-07-23T14:38:19;12.40;;;8.85;;